createdAt,value
2023-04-20T00:00:31.220Z,28.80
2023-04-20T00:02:59.655Z,28.67
2023-04-20T00:05:27.511Z,28.81
2023-04-20T00:07:55.034Z,28.81
2023-04-20T00:10:22.764Z,29.12
2023-04-20T00:12:50.417Z,29.02
2023-04-20T00:15:18.146Z,29.21
2023-04-20T00:17:46.714Z,29.12
2023-04-20T00:20:15.445Z,29.30
2023-04-20T00:22:43.162Z,29.54
2023-04-20T00:25:10.860Z,29.33
2023-04-20T00:27:38.580Z,29.82
2023-04-20T00:30:07.863Z,29.65
2023-04-20T00:32:35.503Z,29.76
2023-04-20T00:35:03.130Z,29.74
2023-04-20T00:37:31.115Z,29.66
2023-04-20T00:39:58.610Z,29.67
2023-04-20T00:42:26.234Z,29.87
2023-04-20T00:44:53.863Z,29.86
2023-04-20T00:47:22.983Z,30.27
2023-04-20T00:49:52.013Z,30.30
2023-04-20T00:52:21.281Z,30.13
2023-04-20T00:54:49.163Z,30.30
2023-04-20T00:57:19.373Z,30.47
2023-04-20T00:59:46.906Z,30.61
2023-04-20T01:02:15.062Z,30.55
2023-04-20T01:04:42.558Z,30.88
2023-04-20T01:07:10.362Z,30.98
2023-04-20T01:09:39.576Z,31.00
2023-04-20T01:12:11.754Z,30.95
2023-04-20T01:14:39.636Z,30.75
2023-04-20T01:17:07.179Z,31.14
2023-04-20T01:19:34.758Z,31.02
2023-04-20T01:22:03.405Z,31.07
2023-04-20T01:24:31.101Z,31.20
2023-04-20T01:27:01.685Z,31.23
2023-04-20T01:29:29.917Z,31.53
2023-04-20T01:31:57.963Z,31.49
2023-04-20T01:34:26.028Z,31.55
2023-04-20T01:36:54.696Z,31.56
2023-04-20T01:39:22.395Z,31.71
2023-04-20T01:41:50.218Z,31.80
2023-04-20T01:44:18.712Z,31.81
2023-04-20T01:46:46.429Z,31.86
2023-04-20T01:49:14.126Z,32.28
2023-04-20T01:51:41.630Z,32.05
2023-04-20T01:54:09.216Z,32.18
2023-04-20T01:56:36.721Z,32.35
2023-04-20T01:59:04.907Z,32.40
2023-04-20T02:01:33.623Z,32.51
2023-04-20T02:04:01.618Z,32.74
2023-04-20T02:06:29.320Z,32.65
2023-04-20T02:08:56.981Z,32.88
2023-04-20T02:11:24.535Z,32.74
2023-04-20T02:13:52.220Z,32.78
2023-04-20T02:16:21.876Z,33.04
2023-04-20T02:18:49.665Z,33.34
2023-04-20T02:21:22.495Z,33.22
2023-04-20T02:23:50.496Z,32.97
2023-04-20T02:26:18.024Z,33.19
2023-04-20T02:28:45.594Z,33.11
2023-04-20T02:31:13.292Z,33.36
2023-04-20T02:33:41.169Z,33.62
2023-04-20T02:36:09.122Z,33.26
2023-04-20T02:38:38.129Z,33.44
2023-04-20T02:41:08.517Z,33.68
2023-04-20T02:43:36.481Z,33.54
2023-04-20T02:46:05.505Z,33.59
2023-04-20T02:48:33.054Z,33.49
2023-04-20T02:51:01.290Z,33.80
2023-04-20T02:53:34.010Z,33.38
2023-04-20T02:56:17.061Z,33.65
2023-04-20T02:58:52.244Z,33.26
2023-04-20T03:01:28.043Z,33.04
2023-04-20T03:04:05.340Z,33.10
2023-04-20T03:06:38.724Z,33.23
2023-04-20T03:09:09.630Z,33.08
2023-04-20T03:11:42.873Z,33.15
2023-04-20T03:14:15.418Z,33.15
2023-04-20T03:16:43.197Z,33.01
2023-04-20T03:19:12.476Z,33.17
2023-04-20T03:21:40.636Z,32.72
2023-04-20T03:24:08.406Z,32.73
2023-04-20T03:26:36.649Z,32.52
2023-04-20T03:29:17.426Z,32.37
2023-04-20T03:31:45.922Z,33.08
2023-04-20T03:34:13.722Z,32.94
2023-04-20T03:36:41.958Z,32.67
2023-04-20T03:39:09.873Z,32.60
2023-04-20T03:41:37.610Z,32.34
2023-04-20T03:44:05.365Z,32.14
2023-04-20T03:46:33.784Z,32.16
2023-04-20T03:49:01.420Z,32.09
2023-04-20T03:51:29.268Z,32.25
2023-04-20T03:53:58.808Z,31.92
2023-04-20T03:56:27.396Z,31.73
2023-04-20T03:58:55.992Z,31.57
2023-04-20T04:01:26.074Z,31.38
2023-04-20T04:03:53.860Z,31.27
2023-04-20T04:06:21.913Z,31.42
2023-04-20T04:08:49.706Z,31.20
2023-04-20T04:11:17.251Z,31.09
2023-04-20T04:13:45.087Z,30.88
2023-04-20T04:16:13.002Z,30.78
2023-04-20T04:18:44.574Z,31.09
2023-04-20T04:21:12.218Z,30.77
2023-04-20T04:23:42.962Z,30.62
2023-04-20T04:26:21.533Z,30.67
2023-04-20T04:28:49.543Z,30.56
2023-04-20T04:31:21.941Z,30.47
2023-04-20T04:33:50.269Z,30.35
2023-04-20T04:36:34.380Z,30.22
2023-04-20T04:39:02.274Z,30.10
2023-04-20T04:41:30.316Z,29.87
2023-04-20T04:44:09.604Z,29.96
2023-04-20T04:46:37.207Z,29.67
2023-04-20T04:49:05.883Z,29.31
2023-04-20T04:51:33.781Z,29.32
2023-04-20T04:54:01.385Z,29.23
2023-04-20T04:56:29.159Z,29.07
2023-04-20T04:58:56.849Z,28.90
2023-04-20T05:01:24.380Z,28.76
2023-04-20T05:03:52.103Z,28.56
2023-04-20T05:06:19.961Z,28.55
2023-04-20T05:08:49.852Z,28.29
2023-04-20T05:11:17.577Z,28.23
2023-04-20T05:13:45.280Z,27.85
2023-04-20T05:16:12.892Z,27.65
2023-04-20T05:18:40.465Z,27.78
2023-04-20T05:21:08.078Z,27.57
2023-04-20T05:23:36.118Z,27.42
2023-04-20T05:26:03.646Z,27.44
2023-04-20T05:28:31.205Z,26.82
2023-04-20T05:30:58.885Z,26.69
2023-04-20T05:33:26.453Z,26.61
2023-04-20T05:35:57.951Z,26.40
2023-04-20T05:38:26.149Z,26.08
2023-04-20T05:40:53.620Z,25.77
2023-04-20T05:43:21.197Z,26.06
2023-04-20T05:45:49.235Z,25.83
2023-04-20T05:48:16.824Z,25.70
2023-04-20T05:50:44.342Z,25.81
2023-04-20T05:53:11.908Z,25.49
2023-04-20T05:55:39.461Z,25.23
2023-04-20T05:58:07.097Z,25.05
2023-04-20T06:00:34.709Z,25.08
2023-04-20T06:03:03.324Z,24.84
2023-04-20T06:05:31.438Z,24.82
2023-04-20T06:07:59.320Z,24.72
2023-04-20T06:10:32.331Z,24.38
2023-04-20T06:12:59.931Z,24.42
2023-04-20T06:15:27.740Z,24.40
2023-04-20T06:17:55.523Z,24.03
2023-04-20T06:20:23.389Z,23.89
2023-04-20T06:22:51.217Z,23.72
2023-04-20T06:25:18.858Z,23.40
2023-04-20T06:27:46.812Z,23.18
2023-04-20T06:30:15.060Z,22.40
2023-04-20T06:32:42.619Z,21.95
2023-04-20T06:35:10.765Z,21.62
2023-04-20T06:37:38.871Z,21.22
2023-04-20T06:40:10.908Z,20.71
2023-04-20T06:42:38.890Z,20.38
2023-04-20T06:45:07.548Z,20.02
2023-04-20T06:47:36.264Z,19.97
2023-04-20T06:50:09.937Z,19.68
2023-04-20T06:52:39.296Z,19.18
2023-04-20T06:55:07.958Z,19.13
2023-04-20T06:57:37.360Z,18.84
2023-04-20T07:00:08.692Z,18.07
2023-04-20T07:02:48.989Z,17.77
2023-04-20T07:05:18.186Z,17.75
2023-04-20T07:07:46.260Z,17.45
2023-04-20T07:10:15.526Z,17.24
2023-04-20T07:12:44.258Z,16.96
2023-04-20T07:15:12.480Z,16.42
2023-04-20T07:17:40.972Z,16.27
2023-04-20T07:20:09.457Z,15.87
2023-04-20T07:22:38.653Z,16.09
2023-04-20T07:25:11.475Z,15.78
2023-04-20T07:27:41.125Z,15.40
2023-04-20T07:30:10.862Z,15.28
2023-04-20T07:32:39.853Z,15.30
2023-04-20T07:35:08.179Z,14.83
2023-04-20T07:37:36.086Z,14.76
2023-04-20T07:40:07.426Z,14.10
2023-04-20T07:42:37.300Z,13.94
2023-04-20T07:45:06.577Z,13.02
2023-04-20T07:47:35.378Z,12.95
2023-04-20T07:50:05.128Z,13.01
2023-04-20T07:52:34.649Z,12.90
2023-04-20T07:55:03.106Z,12.63
2023-04-20T07:57:35.664Z,12.31
2023-04-20T08:00:07.392Z,11.95
2023-04-20T08:02:41.199Z,11.76
2023-04-20T08:05:10.571Z,11.41
2023-04-20T08:07:38.996Z,11.65
2023-04-20T08:10:07.796Z,11.61
2023-04-20T08:12:36.611Z,11.21
2023-04-20T08:15:06.601Z,11.07
2023-04-20T08:17:34.800Z,10.92
2023-04-20T08:20:03.632Z,10.31
2023-04-20T08:22:34.619Z,10.63
2023-04-20T08:25:02.566Z,10.38
2023-04-20T08:27:35.055Z,10.44
2023-04-20T08:30:04.659Z,10.08
2023-04-20T08:32:39.212Z,9.68
2023-04-20T08:35:08.791Z,9.89
2023-04-20T08:37:37.730Z,9.22
2023-04-20T08:40:07.033Z,8.93
2023-04-20T08:42:36.181Z,8.83
2023-04-20T08:45:04.098Z,9.11
2023-04-20T08:47:37.012Z,8.75
2023-04-20T08:50:05.718Z,8.45
2023-04-20T08:52:35.763Z,8.36
2023-04-20T08:55:04.234Z,8.50
2023-04-20T08:57:33.735Z,8.23
2023-04-20T09:00:05.725Z,8.58
2023-04-20T09:02:36.580Z,8.08
2023-04-20T09:05:05.445Z,8.04
2023-04-20T09:07:34.089Z,8.19
2023-04-20T09:10:02.199Z,7.93
2023-04-20T09:12:43.331Z,7.61
2023-04-20T09:15:11.708Z,8.20
2023-04-20T09:17:41.398Z,9.08
2023-04-20T09:20:11.468Z,9.52
2023-04-20T09:22:39.358Z,9.30
2023-04-20T09:25:17.295Z,8.61
2023-04-20T09:28:01.539Z,8.45
2023-04-20T09:30:49.411Z,9.25
2023-04-20T09:33:17.294Z,9.30
2023-04-20T09:35:45.774Z,8.93
2023-04-20T09:38:16.825Z,8.38
2023-04-20T09:40:44.624Z,7.96
2023-04-20T09:43:25.281Z,8.04
2023-04-20T09:45:52.876Z,7.52
2023-04-20T09:48:21.849Z,7.64
2023-04-20T09:50:51.506Z,8.18
2023-04-20T09:53:20.234Z,8.85
2023-04-20T09:55:50.546Z,9.44
2023-04-20T09:58:20.400Z,10.52
2023-04-20T10:00:48.195Z,11.43
2023-04-20T10:03:20.217Z,11.97
2023-04-20T10:05:49.090Z,12.90
2023-04-20T10:08:59.249Z,13.26
2023-04-20T10:11:34.069Z,13.39
2023-04-20T10:14:18.917Z,13.86
2023-04-20T10:16:58.684Z,13.05
2023-04-20T10:19:37.712Z,11.22
2023-04-20T10:22:06.113Z,9.71
2023-04-20T10:24:34.255Z,9.11
2023-04-20T10:27:04.112Z,8.37
2023-04-20T10:29:31.971Z,7.63
2023-04-20T10:32:00.130Z,7.36
2023-04-20T10:34:34.799Z,6.69
2023-04-20T10:37:09.940Z,6.87
2023-04-20T10:39:45.073Z,6.27
2023-04-20T10:42:13.001Z,5.91
2023-04-20T10:44:54.330Z,6.38
2023-04-20T10:47:30.186Z,5.49
2023-04-20T10:50:17.110Z,5.71
2023-04-20T10:52:45.041Z,6.56
2023-04-20T10:55:24.573Z,8.02
2023-04-20T10:57:52.886Z,8.90
2023-04-20T11:00:26.342Z,9.89
2023-04-20T11:02:57.881Z,10.30
2023-04-20T11:05:27.990Z,11.17
2023-04-20T11:07:59.195Z,11.30
2023-04-20T11:10:41.414Z,11.90
2023-04-20T11:13:30.888Z,12.17
2023-04-20T11:15:59.374Z,12.31
2023-04-20T11:18:27.730Z,12.41
2023-04-20T11:20:56.340Z,12.81
2023-04-20T11:23:27.503Z,12.72
2023-04-20T11:25:56.983Z,13.51
2023-04-20T11:28:26.059Z,12.91
2023-04-20T11:30:54.491Z,13.10
2023-04-20T11:33:31.902Z,12.01
2023-04-20T11:36:01.970Z,11.22
2023-04-20T11:38:38.585Z,10.55
2023-04-20T11:41:07.983Z,9.36
2023-04-20T11:43:36.231Z,9.01
2023-04-20T11:46:04.025Z,8.65
2023-04-20T11:48:31.985Z,8.67
2023-04-20T11:50:59.458Z,9.22
2023-04-20T11:53:26.950Z,10.66
2023-04-20T11:55:54.498Z,11.44
2023-04-20T11:58:22.616Z,11.87
2023-04-20T12:00:51.243Z,12.39
2023-04-20T12:03:19.142Z,12.92
2023-04-20T12:05:46.973Z,13.82
2023-04-20T12:08:14.666Z,14.37
2023-04-20T12:10:42.288Z,15.18
2023-04-20T12:13:09.969Z,15.44
2023-04-20T12:15:37.857Z,14.18
2023-04-20T12:18:05.672Z,12.39
2023-04-20T12:20:33.356Z,10.86
2023-04-20T12:23:02.447Z,10.29
2023-04-20T12:25:30.039Z,9.66
2023-04-20T12:27:57.605Z,9.01
2023-04-20T12:30:25.344Z,8.86
2023-04-20T12:32:53.022Z,8.86
2023-04-20T12:35:21.183Z,8.39
2023-04-20T12:37:48.824Z,8.45
2023-04-20T12:40:16.307Z,7.93
2023-04-20T12:42:44.143Z,7.84
2023-04-20T12:45:11.875Z,7.50
2023-04-20T12:47:39.450Z,7.12
2023-04-20T12:50:07.738Z,7.15
2023-04-20T12:52:35.513Z,7.42
2023-04-20T12:55:03.605Z,7.42
2023-04-20T12:57:32.442Z,7.80
2023-04-20T13:00:02.895Z,8.51
2023-04-20T13:02:34.712Z,9.32
2023-04-20T13:05:02.509Z,9.52
2023-04-20T13:07:31.928Z,9.47
2023-04-20T13:10:02.125Z,9.22
2023-04-20T13:12:32.468Z,9.25
2023-04-20T13:14:59.967Z,9.16
2023-04-20T13:17:27.675Z,8.96
2023-04-20T13:19:55.141Z,9.51
2023-04-20T13:22:22.918Z,10.62
2023-04-20T13:24:50.485Z,11.79
2023-04-20T13:27:18.135Z,12.57
2023-04-20T13:29:45.905Z,13.49
2023-04-20T13:32:13.786Z,14.07
2023-04-20T13:34:41.466Z,14.87
2023-04-20T13:37:09.001Z,15.25
2023-04-20T13:39:36.918Z,15.79
2023-04-20T13:42:04.388Z,16.10
2023-04-20T13:44:31.847Z,16.23
2023-04-20T13:46:59.577Z,16.53
2023-04-20T13:49:27.238Z,17.05
2023-04-20T13:51:55.488Z,17.16
2023-04-20T13:54:23.022Z,17.32
2023-04-20T13:56:51.422Z,17.96
2023-04-20T13:59:18.874Z,18.07
2023-04-20T14:01:46.526Z,18.15
2023-04-20T14:04:17.047Z,18.38
2023-04-20T14:06:45.026Z,19.02
2023-04-20T14:09:12.763Z,18.89
2023-04-20T14:11:41.108Z,19.09
2023-04-20T14:14:08.735Z,19.47
2023-04-20T14:16:46.889Z,19.82
2023-04-20T14:19:15.531Z,19.77
2023-04-20T14:21:46.775Z,20.05
2023-04-20T14:24:14.664Z,20.43
2023-04-20T14:26:42.465Z,20.56
2023-04-20T14:29:10.218Z,20.85
2023-04-20T14:31:38.568Z,20.82
2023-04-20T14:34:06.403Z,21.04
2023-04-20T14:36:34.389Z,21.28
2023-04-20T14:39:02.245Z,20.98
2023-04-20T14:41:31.174Z,21.38
2023-04-20T14:43:59.839Z,21.39
2023-04-20T14:46:28.018Z,21.25
2023-04-20T14:48:55.625Z,21.51
2023-04-20T14:51:23.274Z,21.37
2023-04-20T14:53:50.861Z,21.81
2023-04-20T14:56:18.479Z,21.72
2023-04-20T14:58:48.078Z,21.80
2023-04-20T15:01:16.005Z,21.91
2023-04-20T15:03:46.905Z,22.16
2023-04-20T15:06:14.868Z,22.38
2023-04-20T15:08:42.613Z,22.21
2023-04-20T15:11:10.527Z,22.59
2023-04-20T15:13:41.249Z,22.30
2023-04-20T15:16:09.259Z,22.52
2023-04-20T15:18:37.072Z,23.20
2023-04-20T15:21:05.267Z,22.84
2023-04-20T15:23:33.330Z,22.93
2023-04-20T15:26:00.980Z,22.82
2023-04-20T15:28:28.719Z,22.89
2023-04-20T15:30:56.786Z,22.64
2023-04-20T15:33:24.433Z,22.76
2023-04-20T15:35:52.003Z,22.84
2023-04-20T15:38:19.607Z,22.76
2023-04-20T15:40:47.192Z,23.04
2023-04-20T15:43:14.804Z,22.84
2023-04-20T15:45:44.641Z,23.31
2023-04-20T15:48:12.768Z,22.93
2023-04-20T15:50:40.402Z,22.81
2023-04-20T15:53:08.059Z,23.04
2023-04-20T15:55:39.619Z,23.30
2023-04-20T15:58:07.458Z,22.94
2023-04-20T16:00:35.056Z,23.23
2023-04-20T16:03:02.769Z,23.16
2023-04-20T16:05:30.945Z,23.11
2023-04-20T16:08:01.564Z,23.58
2023-04-20T16:10:32.011Z,23.53
2023-04-20T16:12:59.772Z,23.88
2023-04-20T16:15:27.533Z,23.54
2023-04-20T16:17:55.216Z,23.44
2023-04-20T16:20:22.879Z,23.56
2023-04-20T16:22:50.554Z,23.78
2023-04-20T16:25:23.174Z,23.38
2023-04-20T16:27:51.907Z,23.53
2023-04-20T16:30:19.935Z,23.60
2023-04-20T16:32:47.703Z,23.42
2023-04-20T16:35:15.538Z,24.04
2023-04-20T16:37:45.429Z,23.49
2023-04-20T16:40:12.983Z,23.49
2023-04-20T16:42:40.518Z,23.30
2023-04-20T16:45:08.519Z,23.88
2023-04-20T16:47:36.157Z,23.87
2023-04-20T16:50:07.212Z,24.10
2023-04-20T16:52:35.429Z,23.92
2023-04-20T16:55:03.457Z,23.98
2023-04-20T16:57:32.103Z,24.12
2023-04-20T16:59:59.738Z,24.09
2023-04-20T17:02:32.927Z,24.21
2023-04-20T17:05:01.042Z,24.06
2023-04-20T17:07:29.533Z,24.27
2023-04-20T17:09:57.529Z,24.39
2023-04-20T17:12:25.587Z,24.37
2023-04-20T17:14:53.228Z,24.50
2023-04-20T17:17:20.840Z,24.81
2023-04-20T17:19:48.338Z,24.86
2023-04-20T17:22:16.479Z,24.92
2023-04-20T17:24:44.178Z,24.85
2023-04-20T17:27:11.888Z,24.91
2023-04-20T17:29:39.609Z,24.91
2023-04-20T17:32:07.343Z,25.01
2023-04-20T17:34:36.001Z,25.31
2023-04-20T17:37:03.891Z,25.12
2023-04-20T17:39:31.456Z,25.07
2023-04-20T17:41:58.994Z,25.27
2023-04-20T17:44:26.568Z,25.25
2023-04-20T17:46:54.711Z,25.26
2023-04-20T17:49:22.471Z,25.15
2023-04-20T17:51:50.085Z,25.14
2023-04-20T17:54:18.595Z,25.37
2023-04-20T17:56:46.403Z,25.87
2023-04-20T17:59:14.107Z,25.45
2023-04-20T18:01:41.692Z,25.47
2023-04-20T18:04:10.200Z,25.54
2023-04-20T18:06:38.105Z,25.63
2023-04-20T18:09:05.778Z,25.56
2023-04-20T18:11:33.621Z,25.77
2023-04-20T18:14:01.221Z,25.68
2023-04-20T18:16:29.030Z,25.74
2023-04-20T18:18:56.706Z,25.62
2023-04-20T18:21:24.224Z,25.84
2023-04-20T18:23:52.098Z,25.92
2023-04-20T18:26:20.585Z,25.90
2023-04-20T18:28:48.366Z,26.03
2023-04-20T18:31:15.929Z,26.00
2023-04-20T18:33:43.548Z,25.99
2023-04-20T18:36:11.223Z,26.17
2023-04-20T18:38:38.796Z,26.56
2023-04-20T18:41:06.489Z,26.19
2023-04-20T18:43:34.101Z,26.42
2023-04-20T18:46:01.708Z,26.67
2023-04-20T18:48:29.354Z,26.50
2023-04-20T18:50:56.822Z,26.17
2023-04-20T18:53:24.657Z,26.55
2023-04-20T18:55:53.040Z,26.45
2023-04-20T18:58:20.718Z,26.25
2023-04-20T19:00:49.216Z,26.73
2023-04-20T19:03:17.249Z,26.92
2023-04-20T19:05:45.400Z,26.45
2023-04-20T19:08:12.896Z,26.79
2023-04-20T19:10:40.730Z,26.34
2023-04-20T19:13:08.456Z,26.18
2023-04-20T19:15:36.100Z,26.44
2023-04-20T19:18:03.878Z,26.43
2023-04-20T19:20:31.558Z,26.36
2023-04-20T19:22:59.156Z,26.26
2023-04-20T19:25:27.869Z,26.21
2023-04-20T19:27:56.232Z,26.30
2023-04-20T19:30:23.807Z,25.75
2023-04-20T19:32:51.353Z,25.92
2023-04-20T19:35:19.121Z,25.59
2023-04-20T19:37:47.219Z,25.75
2023-04-20T19:40:14.934Z,25.71
2023-04-20T19:42:42.777Z,25.83
2023-04-20T19:45:10.471Z,26.00
2023-04-20T19:47:38.301Z,25.90
2023-04-20T19:50:06.674Z,25.83
2023-04-20T19:52:35.216Z,25.77
2023-04-20T19:55:05.519Z,25.88
2023-04-20T19:57:33.324Z,25.92
2023-04-20T20:00:01.043Z,25.87
2023-04-20T20:02:31.484Z,26.13
2023-04-20T20:04:59.503Z,26.07
2023-04-20T20:07:28.131Z,26.15
2023-04-20T20:09:55.924Z,26.64
2023-04-20T20:12:23.448Z,26.47
2023-04-20T20:14:51.062Z,26.46
2023-04-20T20:17:19.570Z,26.71
2023-04-20T20:19:47.218Z,26.39
2023-04-20T20:22:14.860Z,26.31
2023-04-20T20:24:44.706Z,26.48
2023-04-20T20:27:12.250Z,26.36
2023-04-20T20:29:40.129Z,26.45
2023-04-20T20:32:07.879Z,26.27
2023-04-20T20:34:35.393Z,26.55
2023-04-20T20:37:04.559Z,26.70
2023-04-20T20:39:35.058Z,26.13
2023-04-20T20:42:04.120Z,26.18
2023-04-20T20:44:35.164Z,26.54
2023-04-20T20:47:03.195Z,26.29
2023-04-20T20:49:31.060Z,26.35
2023-04-20T20:51:58.692Z,26.52
2023-04-20T20:54:26.401Z,26.54
2023-04-20T20:56:54.103Z,26.18
2023-04-20T20:59:22.124Z,25.84
2023-04-20T21:01:51.353Z,25.87
2023-04-20T21:04:19.457Z,25.72
2023-04-20T21:06:47.445Z,25.89
2023-04-20T21:09:15.715Z,25.71
2023-04-20T21:11:43.437Z,25.77
2023-04-20T21:14:11.215Z,25.98
2023-04-20T21:16:39.557Z,26.04
2023-04-20T21:19:07.226Z,25.91
2023-04-20T21:21:35.104Z,25.92
2023-04-20T21:24:02.882Z,25.73
2023-04-20T21:26:35.769Z,25.86
2023-04-20T21:29:04.299Z,25.77
2023-04-20T21:31:32.846Z,25.60
2023-04-20T21:34:00.635Z,25.54
2023-04-20T21:36:28.546Z,25.25
2023-04-20T21:38:56.311Z,25.35
2023-04-20T21:41:27.649Z,25.50
2023-04-20T21:43:56.267Z,25.45
2023-04-20T21:46:23.924Z,25.20
2023-04-20T21:48:51.793Z,25.34
2023-04-20T21:51:19.747Z,25.09
2023-04-20T21:53:47.423Z,25.61
2023-04-20T21:56:15.598Z,25.28
2023-04-20T21:58:43.664Z,25.29
2023-04-20T22:01:11.258Z,25.35
2023-04-20T22:03:39.259Z,25.16
2023-04-20T22:06:07.336Z,25.56
2023-04-20T22:08:36.431Z,25.59
2023-04-20T22:11:03.949Z,25.39
2023-04-20T22:13:31.862Z,25.88
2023-04-20T22:15:59.516Z,25.67
2023-04-20T22:18:27.231Z,25.74
2023-04-20T22:20:54.815Z,25.60
2023-04-20T22:23:22.476Z,25.59
2023-04-20T22:25:50.087Z,25.87
2023-04-20T22:28:17.896Z,26.00
2023-04-20T22:30:45.547Z,25.75
2023-04-20T22:33:13.130Z,26.31
2023-04-20T22:35:40.741Z,25.95
2023-04-20T22:38:08.350Z,25.82
2023-04-20T22:40:36.062Z,25.73
2023-04-20T22:43:03.838Z,25.55
2023-04-20T22:45:31.474Z,26.35
2023-04-20T22:47:59.172Z,26.65
2023-04-20T22:50:26.794Z,26.45
2023-04-20T22:52:54.344Z,26.08
2023-04-20T22:55:21.965Z,26.32
2023-04-20T22:57:49.457Z,26.13
2023-04-20T23:00:17.420Z,26.48
2023-04-20T23:02:45.206Z,26.19
2023-04-20T23:05:12.904Z,26.64
2023-04-20T23:07:40.558Z,26.18
2023-04-20T23:10:09.038Z,26.48
2023-04-20T23:12:36.958Z,26.44
2023-04-20T23:15:06.102Z,26.32
2023-04-20T23:17:35.456Z,26.40
2023-04-20T23:20:03.688Z,25.93
2023-04-20T23:22:32.676Z,26.28
2023-04-20T23:25:00.429Z,26.24
2023-04-20T23:27:27.912Z,25.85
2023-04-20T23:29:55.476Z,25.77
2023-04-20T23:32:23.143Z,25.85
2023-04-20T23:34:51.139Z,25.60
2023-04-20T23:37:18.859Z,25.94
2023-04-20T23:39:46.480Z,26.04
2023-04-20T23:42:14.055Z,25.98
2023-04-20T23:44:41.696Z,25.95
2023-04-20T23:47:09.209Z,25.76
2023-04-20T23:49:38.290Z,26.13
2023-04-20T23:52:06.078Z,26.57
2023-04-20T23:54:34.083Z,26.25
2023-04-20T23:57:02.824Z,26.30
2023-04-20T23:59:30.702Z,26.33
